createdAt,value
2022-08-19T00:03:28.044Z,94
2022-08-19T00:13:28.926Z,95
2022-08-19T00:33:30.547Z,95
2022-08-19T00:43:31.828Z,96
2022-08-19T00:53:32.327Z,96
2022-08-19T01:03:56.494Z,96
2022-08-19T01:13:44.420Z,96
2022-08-19T01:23:34.251Z,96
2022-08-19T01:33:34.735Z,97
2022-08-19T01:43:35.037Z,97
2022-08-19T01:53:35.470Z,97
2022-08-19T02:03:35.974Z,97
2022-08-19T02:13:36.650Z,97
2022-08-19T02:23:36.768Z,97
2022-08-19T02:33:37.515Z,97
2022-08-19T02:43:38.608Z,98
2022-08-19T02:53:39.104Z,98
2022-08-19T03:03:40.074Z,98
2022-08-19T03:13:40.600Z,98
2022-08-19T03:23:41.503Z,98
2022-08-19T03:33:42.140Z,99
2022-08-19T03:53:42.928Z,99
2022-08-19T04:03:43.298Z,100
2022-08-19T04:13:44.033Z,100
2022-08-19T04:23:45.491Z,100
2022-08-19T04:33:45.902Z,100
2022-08-19T04:43:46.146Z,100
2022-08-19T04:53:46.543Z,100
2022-08-19T05:03:47.019Z,100
2022-08-19T05:13:47.701Z,100
2022-08-19T05:23:47.992Z,99
2022-08-19T05:33:48.444Z,99
2022-08-19T05:43:48.600Z,99
2022-08-19T05:53:48.704Z,99
2022-08-19T06:03:49.767Z,98
2022-08-19T06:13:50.483Z,98
2022-08-19T06:23:51.472Z,98
2022-08-19T06:33:52.462Z,97
2022-08-19T06:53:54.322Z,96
2022-08-19T07:03:55.364Z,94
2022-08-19T07:13:56.093Z,93
2022-08-19T07:23:56.615Z,92
2022-08-19T07:33:56.744Z,90
2022-08-19T07:43:57.231Z,89
2022-08-19T07:53:57.626Z,86
2022-08-19T08:03:57.950Z,84
2022-08-19T08:14:00.619Z,83
2022-08-19T08:33:59.903Z,82
2022-08-19T08:44:00.931Z,80
2022-08-19T08:54:01.355Z,75
2022-08-19T09:04:02.946Z,73
2022-08-19T09:14:02.967Z,71
2022-08-19T09:24:03.723Z,71
2022-08-19T09:34:04.476Z,70
2022-08-19T09:44:04.863Z,68
2022-08-19T09:54:05.218Z,67
2022-08-19T10:04:19.891Z,65
2022-08-19T10:14:06.296Z,66
2022-08-19T10:24:07.082Z,68
2022-08-19T10:34:07.658Z,65
2022-08-19T10:54:12.503Z,62
2022-08-19T11:04:09.222Z,63
2022-08-19T11:14:09.610Z,64
2022-08-19T11:24:10.594Z,61
2022-08-19T11:34:11.411Z,59
2022-08-19T11:44:11.719Z,58
2022-08-19T11:54:12.326Z,57
2022-08-19T12:14:14.580Z,57
2022-08-19T12:24:13.617Z,56
2022-08-19T12:34:14.564Z,55
2022-08-19T12:54:15.305Z,54
2022-08-19T13:04:16.335Z,51
2022-08-19T13:14:16.579Z,49
2022-08-19T13:24:17.163Z,49
2022-08-19T13:44:18.453Z,51
2022-08-19T13:54:18.755Z,49
2022-08-19T14:04:19.769Z,49
2022-08-19T14:14:20.444Z,49
2022-08-19T14:24:21.418Z,51
2022-08-19T14:34:21.709Z,50
2022-08-19T14:54:23.050Z,50
2022-08-19T15:04:23.264Z,49
2022-08-19T15:14:23.684Z,51
2022-08-19T15:24:24.434Z,49
2022-08-19T15:34:24.810Z,51
2022-08-19T15:44:25.608Z,50
2022-08-19T15:54:25.734Z,49
2022-08-19T16:04:26.703Z,48
2022-08-19T16:14:27.666Z,48
2022-08-19T16:34:28.728Z,51
2022-08-19T16:54:32.455Z,53
2022-08-19T17:04:29.606Z,54
2022-08-19T17:14:30.611Z,55
2022-08-19T17:24:30.752Z,55
2022-08-19T17:34:31.527Z,55
2022-08-19T17:44:32.073Z,57
2022-08-19T17:54:33.311Z,58
2022-08-19T18:04:32.823Z,60
2022-08-19T18:14:34.151Z,60
2022-08-19T18:24:34.466Z,61
2022-08-19T18:34:34.658Z,64
2022-08-19T18:44:35.002Z,67
2022-08-19T18:54:35.629Z,68
2022-08-19T19:04:35.920Z,71
2022-08-19T19:14:48.944Z,71
2022-08-19T19:24:41.785Z,73
2022-08-19T19:34:42.313Z,75
2022-08-19T19:44:42.421Z,76
2022-08-19T19:54:47.715Z,77
2022-08-19T20:04:44.398Z,77
2022-08-19T20:14:45.173Z,77
2022-08-19T20:34:46.182Z,80
2022-08-19T20:44:46.587Z,80
2022-08-19T20:54:47.288Z,80
2022-08-19T21:04:47.674Z,81
2022-08-19T21:14:48.403Z,82
2022-08-19T21:24:48.603Z,82
2022-08-19T21:34:49.480Z,83
2022-08-19T21:44:50.503Z,83
2022-08-19T21:54:50.952Z,84
2022-08-19T22:04:51.111Z,84
2022-08-19T22:14:51.376Z,84
2022-08-19T22:24:51.928Z,85
2022-08-19T22:34:52.862Z,86
2022-08-19T22:44:53.021Z,87
2022-08-19T22:54:53.310Z,88
2022-08-19T23:04:53.775Z,89
2022-08-19T23:14:54.809Z,89
2022-08-19T23:24:56.069Z,90
2022-08-19T23:34:56.733Z,92
2022-08-19T23:44:57.625Z,92
2022-08-19T23:54:58.376Z,92
